sensor_id;sensor_type;location;lat;lon;timestamp;P1;durP1;ratioP1;P2;durP2;ratioP2
20844;SDS011;10583;49.084;8.646;2024-01-30T00:00:30;16.20;;;16.10;;
20844;SDS011;10583;49.084;8.646;2024-01-30T00:02:57;14.77;;;14.67;;
20844;SDS011;10583;49.084;8.646;2024-01-30T00:05:25;15.20;;;15.10;;
20844;SDS011;10583;49.084;8.646;2024-01-30T00:07:52;15.27;;;15.17;;
20844;SDS011;10583;49.084;8.646;2024-01-30T00:10:19;13.93;;;13.83;;
20844;SDS011;10583;49.084;8.646;2024-01-30T00:12:46;16.00;;;15.90;;
20844;SDS011;10583;49.084;8.646;2024-01-30T00:15:13;17.13;;;17.03;;
20844;SDS011;10583;49.084;8.646;2024-01-30T00:17:40;15.60;;;15.50;;
20844;SDS011;10583;49.084;8.646;2024-01-30T00:20:07;14.37;;;14.27;;
20844;SDS011;10583;49.084;8.646;2024-01-30T00:22:36;16.43;;;16.33;;
20844;SDS011;10583;49.084;8.646;2024-01-30T00:25:03;15.47;;;15.37;;
20844;SDS011;10583;49.084;8.646;2024-01-30T00:27:30;15.70;;;15.60;;
20844;SDS011;10583;49.084;8.646;2024-01-30T00:29:57;15.73;;;15.63;;
20844;SDS011;10583;49.084;8.646;2024-01-30T00:32:24;15.47;;;15.37;;
20844;SDS011;10583;49.084;8.646;2024-01-30T00:34:51;15.97;;;15.87;;
20844;SDS011;10583;49.084;8.646;2024-01-30T00:37:18;15.00;;;14.90;;
20844;SDS011;10583;49.084;8.646;2024-01-30T00:39:46;13.17;;;13.07;;
20844;SDS011;10583;49.084;8.646;2024-01-30T00:42:13;14.93;;;14.83;;
20844;SDS011;10583;49.084;8.646;2024-01-30T00:44:40;13.10;;;13.00;;
20844;SDS011;10583;49.084;8.646;2024-01-30T00:47:07;13.63;;;13.53;;
20844;SDS011;10583;49.084;8.646;2024-01-30T00:49:34;14.17;;;14.07;;
20844;SDS011;10583;49.084;8.646;2024-01-30T00:52:01;13.00;;;12.90;;
20844;SDS011;10583;49.084;8.646;2024-01-30T00:54:28;14.40;;;14.30;;
20844;SDS011;10583;49.084;8.646;2024-01-30T00:56:56;14.47;;;14.37;;
20844;SDS011;10583;49.084;8.646;2024-01-30T00:59:23;14.27;;;14.17;;
20844;SDS011;10583;49.084;8.646;2024-01-30T01:01:50;13.93;;;13.83;;
20844;SDS011;10583;49.084;8.646;2024-01-30T01:04:16;11.70;;;11.60;;
20844;SDS011;10583;49.084;8.646;2024-01-30T01:06:43;12.10;;;12.00;;
20844;SDS011;10583;49.084;8.646;2024-01-30T01:09:10;11.87;;;11.77;;
20844;SDS011;10583;49.084;8.646;2024-01-30T01:11:37;11.17;;;11.13;;
20844;SDS011;10583;49.084;8.646;2024-01-30T01:14:05;11.53;;;11.43;;
20844;SDS011;10583;49.084;8.646;2024-01-30T01:16:32;10.33;;;10.30;;
20844;SDS011;10583;49.084;8.646;2024-01-30T01:18:59;11.00;;;10.90;;
20844;SDS011;10583;49.084;8.646;2024-01-30T01:21:26;10.60;;;10.50;;
20844;SDS011;10583;49.084;8.646;2024-01-30T01:23:53;11.47;;;11.43;;
20844;SDS011;10583;49.084;8.646;2024-01-30T01:26:19;10.00;;;10.00;;
20844;SDS011;10583;49.084;8.646;2024-01-30T01:28:46;10.57;;;10.47;;
20844;SDS011;10583;49.084;8.646;2024-01-30T01:31:14;12.50;;;12.40;;
20844;SDS011;10583;49.084;8.646;2024-01-30T01:33:42;12.53;;;12.43;;
20844;SDS011;10583;49.084;8.646;2024-01-30T01:36:09;12.90;;;12.80;;
20844;SDS011;10583;49.084;8.646;2024-01-30T01:38:36;13.07;;;12.97;;
20844;SDS011;10583;49.084;8.646;2024-01-30T01:41:02;10.53;;;10.50;;
20844;SDS011;10583;49.084;8.646;2024-01-30T01:43:29;11.60;;;11.50;;
20844;SDS011;10583;49.084;8.646;2024-01-30T01:45:56;9.60;;;9.60;;
20844;SDS011;10583;49.084;8.646;2024-01-30T01:48:24;10.33;;;10.33;;
20844;SDS011;10583;49.084;8.646;2024-01-30T01:50:51;9.63;;;9.53;;
20844;SDS011;10583;49.084;8.646;2024-01-30T01:53:18;9.30;;;9.30;;
20844;SDS011;10583;49.084;8.646;2024-01-30T01:55:45;8.87;;;8.87;;
20844;SDS011;10583;49.084;8.646;2024-01-30T01:58:13;9.17;;;9.17;;
20844;SDS011;10583;49.084;8.646;2024-01-30T02:00:40;8.43;;;8.43;;
20844;SDS011;10583;49.084;8.646;2024-01-30T02:03:08;8.90;;;8.90;;
20844;SDS011;10583;49.084;8.646;2024-01-30T02:05:38;8.50;;;8.50;;
20844;SDS011;10583;49.084;8.646;2024-01-30T02:08:07;8.50;;;8.50;;
20844;SDS011;10583;49.084;8.646;2024-01-30T02:10:34;8.60;;;8.60;;
20844;SDS011;10583;49.084;8.646;2024-01-30T02:13:01;8.47;;;8.47;;
20844;SDS011;10583;49.084;8.646;2024-01-30T02:15:27;8.50;;;8.50;;
20844;SDS011;10583;49.084;8.646;2024-01-30T02:17:55;7.87;;;7.87;;
20844;SDS011;10583;49.084;8.646;2024-01-30T02:20:21;9.40;;;9.40;;
20844;SDS011;10583;49.084;8.646;2024-01-30T02:22:52;8.37;;;8.37;;
20844;SDS011;10583;49.084;8.646;2024-01-30T02:25:20;7.93;;;7.93;;
20844;SDS011;10583;49.084;8.646;2024-01-30T02:27:55;8.83;;;8.83;;
20844;SDS011;10583;49.084;8.646;2024-01-30T02:30:22;8.00;;;8.00;;
20844;SDS011;10583;49.084;8.646;2024-01-30T02:32:49;7.70;;;7.70;;
20844;SDS011;10583;49.084;8.646;2024-01-30T02:35:15;8.10;;;8.10;;
20844;SDS011;10583;49.084;8.646;2024-01-30T02:37:42;8.63;;;8.63;;
20844;SDS011;10583;49.084;8.646;2024-01-30T02:40:10;10.13;;;10.13;;
20844;SDS011;10583;49.084;8.646;2024-01-30T02:42:37;9.67;;;9.67;;
20844;SDS011;10583;49.084;8.646;2024-01-30T02:45:04;10.00;;;10.00;;
20844;SDS011;10583;49.084;8.646;2024-01-30T02:47:31;8.43;;;8.43;;
20844;SDS011;10583;49.084;8.646;2024-01-30T02:49:57;8.37;;;8.37;;
20844;SDS011;10583;49.084;8.646;2024-01-30T02:52:24;9.00;;;9.00;;
20844;SDS011;10583;49.084;8.646;2024-01-30T02:54:51;8.30;;;8.30;;
20844;SDS011;10583;49.084;8.646;2024-01-30T02:57:19;8.40;;;8.40;;
20844;SDS011;10583;49.084;8.646;2024-01-30T02:59:45;8.17;;;8.17;;
20844;SDS011;10583;49.084;8.646;2024-01-30T03:02:12;8.70;;;8.70;;
20844;SDS011;10583;49.084;8.646;2024-01-30T03:04:40;9.33;;;9.23;;
20844;SDS011;10583;49.084;8.646;2024-01-30T03:07:07;8.93;;;8.93;;
20844;SDS011;10583;49.084;8.646;2024-01-30T03:09:34;9.27;;;9.27;;
20844;SDS011;10583;49.084;8.646;2024-01-30T03:12:00;9.73;;;9.63;;
20844;SDS011;10583;49.084;8.646;2024-01-30T03:14:29;9.33;;;9.33;;
20844;SDS011;10583;49.084;8.646;2024-01-30T03:16:56;8.90;;;8.90;;
20844;SDS011;10583;49.084;8.646;2024-01-30T03:19:23;7.53;;;7.53;;
20844;SDS011;10583;49.084;8.646;2024-01-30T03:21:50;7.87;;;7.87;;
20844;SDS011;10583;49.084;8.646;2024-01-30T03:24:16;8.83;;;8.83;;
20844;SDS011;10583;49.084;8.646;2024-01-30T03:26:43;8.27;;;8.27;;
20844;SDS011;10583;49.084;8.646;2024-01-30T03:29:10;9.17;;;9.17;;
20844;SDS011;10583;49.084;8.646;2024-01-30T03:31:38;8.50;;;8.50;;
20844;SDS011;10583;49.084;8.646;2024-01-30T03:34:05;8.07;;;8.07;;
20844;SDS011;10583;49.084;8.646;2024-01-30T03:36:31;7.43;;;7.43;;
20844;SDS011;10583;49.084;8.646;2024-01-30T03:38:59;7.40;;;7.40;;
20844;SDS011;10583;49.084;8.646;2024-01-30T03:41:26;7.07;;;7.07;;
20844;SDS011;10583;49.084;8.646;2024-01-30T03:43:52;7.43;;;7.43;;
20844;SDS011;10583;49.084;8.646;2024-01-30T03:46:19;7.00;;;7.00;;
20844;SDS011;10583;49.084;8.646;2024-01-30T03:48:47;6.77;;;6.77;;
20844;SDS011;10583;49.084;8.646;2024-01-30T03:51:14;7.00;;;7.00;;
20844;SDS011;10583;49.084;8.646;2024-01-30T03:53:41;6.67;;;6.67;;
20844;SDS011;10583;49.084;8.646;2024-01-30T03:56:07;6.87;;;6.87;;
20844;SDS011;10583;49.084;8.646;2024-01-30T03:58:34;6.70;;;6.70;;
20844;SDS011;10583;49.084;8.646;2024-01-30T04:01:01;6.10;;;6.10;;
20844;SDS011;10583;49.084;8.646;2024-01-30T04:03:28;6.30;;;6.30;;
20844;SDS011;10583;49.084;8.646;2024-01-30T04:05:55;6.43;;;6.43;;
20844;SDS011;10583;49.084;8.646;2024-01-30T04:08:22;6.20;;;6.20;;
20844;SDS011;10583;49.084;8.646;2024-01-30T04:10:49;6.77;;;6.77;;
20844;SDS011;10583;49.084;8.646;2024-01-30T04:13:15;6.60;;;6.60;;
20844;SDS011;10583;49.084;8.646;2024-01-30T04:15:42;6.37;;;6.37;;
20844;SDS011;10583;49.084;8.646;2024-01-30T04:18:10;7.33;;;7.33;;
20844;SDS011;10583;49.084;8.646;2024-01-30T04:20:37;8.53;;;8.43;;
20844;SDS011;10583;49.084;8.646;2024-01-30T04:23:05;8.40;;;8.40;;
20844;SDS011;10583;49.084;8.646;2024-01-30T04:25:32;7.97;;;7.97;;
20844;SDS011;10583;49.084;8.646;2024-01-30T04:27:58;7.97;;;7.97;;
20844;SDS011;10583;49.084;8.646;2024-01-30T04:30:25;7.67;;;7.67;;
20844;SDS011;10583;49.084;8.646;2024-01-30T04:32:52;8.70;;;8.70;;
20844;SDS011;10583;49.084;8.646;2024-01-30T04:35:18;9.77;;;9.77;;
20844;SDS011;10583;49.084;8.646;2024-01-30T04:37:48;10.70;;;10.67;;
20844;SDS011;10583;49.084;8.646;2024-01-30T04:40:16;9.00;;;9.00;;
20844;SDS011;10583;49.084;8.646;2024-01-30T04:42:43;8.40;;;8.40;;
20844;SDS011;10583;49.084;8.646;2024-01-30T04:45:11;7.87;;;7.83;;
20844;SDS011;10583;49.084;8.646;2024-01-30T04:47:38;10.27;;;10.17;;
20844;SDS011;10583;49.084;8.646;2024-01-30T04:50:06;9.23;;;9.23;;
20844;SDS011;10583;49.084;8.646;2024-01-30T04:52:33;7.73;;;7.73;;
20844;SDS011;10583;49.084;8.646;2024-01-30T04:55:00;7.50;;;7.50;;
20844;SDS011;10583;49.084;8.646;2024-01-30T04:57:28;7.90;;;7.90;;
20844;SDS011;10583;49.084;8.646;2024-01-30T04:59:56;7.10;;;7.10;;
20844;SDS011;10583;49.084;8.646;2024-01-30T05:02:22;6.87;;;6.87;;
20844;SDS011;10583;49.084;8.646;2024-01-30T05:04:49;7.10;;;7.10;;
20844;SDS011;10583;49.084;8.646;2024-01-30T05:07:15;6.87;;;6.87;;
20844;SDS011;10583;49.084;8.646;2024-01-30T05:09:43;7.43;;;7.43;;
20844;SDS011;10583;49.084;8.646;2024-01-30T05:12:09;7.00;;;7.00;;
20844;SDS011;10583;49.084;8.646;2024-01-30T05:14:37;6.70;;;6.70;;
20844;SDS011;10583;49.084;8.646;2024-01-30T05:17:04;6.43;;;6.43;;
20844;SDS011;10583;49.084;8.646;2024-01-30T05:19:31;7.03;;;7.03;;
20844;SDS011;10583;49.084;8.646;2024-01-30T05:21:58;7.30;;;7.30;;
20844;SDS011;10583;49.084;8.646;2024-01-30T05:24:24;6.70;;;6.70;;
20844;SDS011;10583;49.084;8.646;2024-01-30T05:26:51;7.07;;;7.07;;
20844;SDS011;10583;49.084;8.646;2024-01-30T05:29:18;7.03;;;7.03;;
20844;SDS011;10583;49.084;8.646;2024-01-30T05:31:46;7.57;;;7.57;;
20844;SDS011;10583;49.084;8.646;2024-01-30T05:34:12;6.80;;;6.80;;
20844;SDS011;10583;49.084;8.646;2024-01-30T05:36:39;7.40;;;7.40;;
20844;SDS011;10583;49.084;8.646;2024-01-30T05:39:06;7.20;;;7.20;;
20844;SDS011;10583;49.084;8.646;2024-01-30T05:41:33;7.63;;;7.63;;
20844;SDS011;10583;49.084;8.646;2024-01-30T05:43:59;7.70;;;7.67;;
20844;SDS011;10583;49.084;8.646;2024-01-30T05:46:26;7.47;;;7.47;;
20844;SDS011;10583;49.084;8.646;2024-01-30T05:48:54;9.33;;;9.33;;
20844;SDS011;10583;49.084;8.646;2024-01-30T05:51:21;8.87;;;8.87;;
20844;SDS011;10583;49.084;8.646;2024-01-30T05:53:47;8.83;;;8.83;;
20844;SDS011;10583;49.084;8.646;2024-01-30T05:56:14;7.30;;;7.30;;
20844;SDS011;10583;49.084;8.646;2024-01-30T05:58:41;9.27;;;9.27;;
20844;SDS011;10583;49.084;8.646;2024-01-30T06:01:08;9.30;;;9.30;;
20844;SDS011;10583;49.084;8.646;2024-01-30T06:03:35;9.00;;;9.00;;
20844;SDS011;10583;49.084;8.646;2024-01-30T06:06:03;9.23;;;9.23;;
20844;SDS011;10583;49.084;8.646;2024-01-30T06:08:30;9.23;;;9.23;;
20844;SDS011;10583;49.084;8.646;2024-01-30T06:10:57;10.03;;;10.03;;
20844;SDS011;10583;49.084;8.646;2024-01-30T06:13:23;9.60;;;9.60;;
20844;SDS011;10583;49.084;8.646;2024-01-30T06:15:50;8.83;;;8.83;;
20844;SDS011;10583;49.084;8.646;2024-01-30T06:18:16;9.63;;;9.63;;
20844;SDS011;10583;49.084;8.646;2024-01-30T06:20:43;9.63;;;9.63;;
20844;SDS011;10583;49.084;8.646;2024-01-30T06:23:11;9.43;;;9.43;;
20844;SDS011;10583;49.084;8.646;2024-01-30T06:25:39;10.97;;;10.97;;
20844;SDS011;10583;49.084;8.646;2024-01-30T06:28:06;9.03;;;9.03;;
20844;SDS011;10583;49.084;8.646;2024-01-30T06:30:33;9.43;;;9.43;;
20844;SDS011;10583;49.084;8.646;2024-01-30T06:32:59;8.33;;;8.33;;
20844;SDS011;10583;49.084;8.646;2024-01-30T06:35:26;8.43;;;8.43;;
20844;SDS011;10583;49.084;8.646;2024-01-30T06:37:53;6.97;;;6.97;;
20844;SDS011;10583;49.084;8.646;2024-01-30T06:40:21;6.97;;;6.97;;
20844;SDS011;10583;49.084;8.646;2024-01-30T06:42:48;7.50;;;7.50;;
20844;SDS011;10583;49.084;8.646;2024-01-30T06:45:15;6.63;;;6.63;;
20844;SDS011;10583;49.084;8.646;2024-01-30T06:47:41;6.53;;;6.53;;
20844;SDS011;10583;49.084;8.646;2024-01-30T06:50:08;6.30;;;6.30;;
20844;SDS011;10583;49.084;8.646;2024-01-30T06:52:35;7.50;;;7.50;;
20844;SDS011;10583;49.084;8.646;2024-01-30T06:55:02;8.87;;;8.87;;
20844;SDS011;10583;49.084;8.646;2024-01-30T06:57:30;8.33;;;8.33;;
20844;SDS011;10583;49.084;8.646;2024-01-30T06:59:57;9.00;;;9.00;;
20844;SDS011;10583;49.084;8.646;2024-01-30T07:02:23;8.77;;;8.77;;
20844;SDS011;10583;49.084;8.646;2024-01-30T07:04:50;8.13;;;8.13;;
20844;SDS011;10583;49.084;8.646;2024-01-30T07:07:17;9.43;;;9.43;;
20844;SDS011;10583;49.084;8.646;2024-01-30T07:09:43;11.63;;;11.53;;
20844;SDS011;10583;49.084;8.646;2024-01-30T07:12:10;10.90;;;10.90;;
20844;SDS011;10583;49.084;8.646;2024-01-30T07:14:38;11.57;;;11.50;;
20844;SDS011;10583;49.084;8.646;2024-01-30T07:17:05;10.47;;;10.47;;
20844;SDS011;10583;49.084;8.646;2024-01-30T07:19:32;10.10;;;10.10;;
20844;SDS011;10583;49.084;8.646;2024-01-30T07:21:59;13.23;;;13.13;;
20844;SDS011;10583;49.084;8.646;2024-01-30T07:24:26;12.80;;;12.70;;
20844;SDS011;10583;49.084;8.646;2024-01-30T07:26:52;12.03;;;11.93;;
20844;SDS011;10583;49.084;8.646;2024-01-30T07:29:19;10.93;;;10.83;;
20844;SDS011;10583;49.084;8.646;2024-01-30T07:31:48;11.03;;;11.03;;
20844;SDS011;10583;49.084;8.646;2024-01-30T07:34:15;11.43;;;11.33;;
20844;SDS011;10583;49.084;8.646;2024-01-30T07:36:42;8.70;;;8.70;;
20844;SDS011;10583;49.084;8.646;2024-01-30T07:39:08;7.97;;;7.97;;
20844;SDS011;10583;49.084;8.646;2024-01-30T07:41:35;8.50;;;8.50;;
20844;SDS011;10583;49.084;8.646;2024-01-30T07:44:02;8.70;;;8.70;;
20844;SDS011;10583;49.084;8.646;2024-01-30T07:46:29;8.17;;;8.17;;
20844;SDS011;10583;49.084;8.646;2024-01-30T07:48:57;14.30;;;14.20;;
20844;SDS011;10583;49.084;8.646;2024-01-30T07:51:25;13.67;;;13.57;;
20844;SDS011;10583;49.084;8.646;2024-01-30T07:53:53;14.60;;;14.50;;
20844;SDS011;10583;49.084;8.646;2024-01-30T07:56:20;12.97;;;12.87;;
20844;SDS011;10583;49.084;8.646;2024-01-30T07:58:46;12.80;;;12.70;;
20844;SDS011;10583;49.084;8.646;2024-01-30T08:01:14;12.77;;;12.67;;
20844;SDS011;10583;49.084;8.646;2024-01-30T08:03:41;13.60;;;13.50;;
20844;SDS011;10583;49.084;8.646;2024-01-30T08:06:09;14.77;;;14.67;;
20844;SDS011;10583;49.084;8.646;2024-01-30T08:08:36;13.47;;;13.37;;
20844;SDS011;10583;49.084;8.646;2024-01-30T08:11:02;14.53;;;14.43;;
20844;SDS011;10583;49.084;8.646;2024-01-30T08:13:29;13.97;;;13.87;;
20844;SDS011;10583;49.084;8.646;2024-01-30T08:15:56;14.50;;;14.40;;
20844;SDS011;10583;49.084;8.646;2024-01-30T08:18:23;12.93;;;12.83;;
20844;SDS011;10583;49.084;8.646;2024-01-30T08:20:49;15.17;;;15.07;;
20844;SDS011;10583;49.084;8.646;2024-01-30T08:23:17;13.60;;;13.50;;
20844;SDS011;10583;49.084;8.646;2024-01-30T08:25:44;13.30;;;13.20;;
20844;SDS011;10583;49.084;8.646;2024-01-30T08:28:10;13.33;;;13.23;;
20844;SDS011;10583;49.084;8.646;2024-01-30T08:30:37;14.50;;;14.40;;
20844;SDS011;10583;49.084;8.646;2024-01-30T08:33:04;14.23;;;14.13;;
20844;SDS011;10583;49.084;8.646;2024-01-30T08:35:31;13.90;;;13.80;;
20844;SDS011;10583;49.084;8.646;2024-01-30T08:37:58;12.50;;;12.40;;
20844;SDS011;10583;49.084;8.646;2024-01-30T08:40:26;13.20;;;13.10;;
20844;SDS011;10583;49.084;8.646;2024-01-30T08:42:53;11.47;;;11.37;;
20844;SDS011;10583;49.084;8.646;2024-01-30T08:45:20;11.53;;;11.43;;
20844;SDS011;10583;49.084;8.646;2024-01-30T08:47:47;11.63;;;11.53;;
20844;SDS011;10583;49.084;8.646;2024-01-30T08:50:14;12.10;;;12.00;;
20844;SDS011;10583;49.084;8.646;2024-01-30T08:52:40;11.93;;;11.83;;
20844;SDS011;10583;49.084;8.646;2024-01-30T08:55:07;13.67;;;13.57;;
20844;SDS011;10583;49.084;8.646;2024-01-30T08:57:35;12.27;;;12.17;;
20844;SDS011;10583;49.084;8.646;2024-01-30T09:00:02;11.43;;;11.43;;
20844;SDS011;10583;49.084;8.646;2024-01-30T09:02:31;10.10;;;10.03;;
20844;SDS011;10583;49.084;8.646;2024-01-30T09:04:58;11.00;;;10.90;;
20844;SDS011;10583;49.084;8.646;2024-01-30T09:07:24;10.97;;;10.87;;
20844;SDS011;10583;49.084;8.646;2024-01-30T09:09:51;10.00;;;10.00;;
20844;SDS011;10583;49.084;8.646;2024-01-30T09:12:18;11.00;;;11.00;;
20844;SDS011;10583;49.084;8.646;2024-01-30T09:14:46;11.27;;;11.23;;
20844;SDS011;10583;49.084;8.646;2024-01-30T09:17:13;12.13;;;12.03;;
20844;SDS011;10583;49.084;8.646;2024-01-30T09:19:40;11.33;;;11.23;;
20844;SDS011;10583;49.084;8.646;2024-01-30T09:22:06;11.73;;;11.63;;
20844;SDS011;10583;49.084;8.646;2024-01-30T09:24:33;11.30;;;11.23;;
20844;SDS011;10583;49.084;8.646;2024-01-30T09:27:00;10.97;;;10.87;;
20844;SDS011;10583;49.084;8.646;2024-01-30T09:29:26;10.93;;;10.93;;
20844;SDS011;10583;49.084;8.646;2024-01-30T09:31:54;10.57;;;10.53;;
20844;SDS011;10583;49.084;8.646;2024-01-30T09:34:21;10.93;;;10.83;;
20844;SDS011;10583;49.084;8.646;2024-01-30T09:36:48;11.30;;;11.20;;
20844;SDS011;10583;49.084;8.646;2024-01-30T09:39:14;11.00;;;10.97;;
20844;SDS011;10583;49.084;8.646;2024-01-30T09:41:44;10.70;;;10.63;;
20844;SDS011;10583;49.084;8.646;2024-01-30T09:44:15;9.67;;;9.57;;
20844;SDS011;10583;49.084;8.646;2024-01-30T09:46:42;17.50;;;17.40;;
20844;SDS011;10583;49.084;8.646;2024-01-30T09:49:10;14.53;;;14.43;;
20844;SDS011;10583;49.084;8.646;2024-01-30T09:51:37;11.40;;;11.40;;
20844;SDS011;10583;49.084;8.646;2024-01-30T09:54:05;11.47;;;11.37;;
20844;SDS011;10583;49.084;8.646;2024-01-30T09:56:34;10.73;;;10.73;;
20844;SDS011;10583;49.084;8.646;2024-01-30T09:59:01;10.30;;;10.30;;
20844;SDS011;10583;49.084;8.646;2024-01-30T10:01:27;11.70;;;11.60;;
20844;SDS011;10583;49.084;8.646;2024-01-30T10:03:55;11.50;;;11.50;;
20844;SDS011;10583;49.084;8.646;2024-01-30T10:06:23;11.50;;;11.40;;
20844;SDS011;10583;49.084;8.646;2024-01-30T10:08:51;12.07;;;11.97;;
20844;SDS011;10583;49.084;8.646;2024-01-30T10:11:17;13.10;;;13.00;;
20844;SDS011;10583;49.084;8.646;2024-01-30T10:13:44;13.83;;;13.73;;
20844;SDS011;10583;49.084;8.646;2024-01-30T10:16:13;13.07;;;12.97;;
20844;SDS011;10583;49.084;8.646;2024-01-30T10:18:40;12.80;;;12.70;;
20844;SDS011;10583;49.084;8.646;2024-01-30T10:21:07;12.33;;;12.23;;
20844;SDS011;10583;49.084;8.646;2024-01-30T10:23:36;11.43;;;11.43;;
20844;SDS011;10583;49.084;8.646;2024-01-30T10:26:03;12.63;;;12.53;;
20844;SDS011;10583;49.084;8.646;2024-01-30T10:28:30;12.50;;;12.40;;
20844;SDS011;10583;49.084;8.646;2024-01-30T10:30:57;12.60;;;12.50;;
20844;SDS011;10583;49.084;8.646;2024-01-30T10:33:24;12.10;;;12.10;;
20844;SDS011;10583;49.084;8.646;2024-01-30T10:35:52;13.20;;;13.10;;
20844;SDS011;10583;49.084;8.646;2024-01-30T10:38:21;12.67;;;12.57;;
20844;SDS011;10583;49.084;8.646;2024-01-30T10:40:53;11.63;;;11.63;;
20844;SDS011;10583;49.084;8.646;2024-01-30T10:43:22;12.10;;;12.03;;
20844;SDS011;10583;49.084;8.646;2024-01-30T10:45:54;11.67;;;11.57;;
20844;SDS011;10583;49.084;8.646;2024-01-30T10:48:24;11.83;;;11.80;;
20844;SDS011;10583;49.084;8.646;2024-01-30T10:50:55;13.10;;;13.00;;
20844;SDS011;10583;49.084;8.646;2024-01-30T10:53:25;11.80;;;11.70;;
20844;SDS011;10583;49.084;8.646;2024-01-30T10:55:54;12.00;;;11.90;;
20844;SDS011;10583;49.084;8.646;2024-01-30T10:58:23;12.20;;;12.10;;
20844;SDS011;10583;49.084;8.646;2024-01-30T11:00:51;12.07;;;11.97;;
20844;SDS011;10583;49.084;8.646;2024-01-30T11:03:19;12.20;;;12.10;;
20844;SDS011;10583;49.084;8.646;2024-01-30T11:05:48;13.00;;;12.90;;
20844;SDS011;10583;49.084;8.646;2024-01-30T11:08:22;12.77;;;12.67;;
20844;SDS011;10583;49.084;8.646;2024-01-30T11:10:54;13.70;;;13.60;;
20844;SDS011;10583;49.084;8.646;2024-01-30T11:13:26;12.60;;;12.50;;
20844;SDS011;10583;49.084;8.646;2024-01-30T11:15:54;12.40;;;12.30;;
20844;SDS011;10583;49.084;8.646;2024-01-30T11:18:23;12.67;;;12.57;;
20844;SDS011;10583;49.084;8.646;2024-01-30T11:20:51;12.37;;;12.27;;
20844;SDS011;10583;49.084;8.646;2024-01-30T11:23:18;11.87;;;11.80;;
20844;SDS011;10583;49.084;8.646;2024-01-30T11:25:48;12.80;;;12.70;;
20844;SDS011;10583;49.084;8.646;2024-01-30T11:28:16;13.83;;;13.73;;
20844;SDS011;10583;49.084;8.646;2024-01-30T11:30:43;13.43;;;13.33;;
20844;SDS011;10583;49.084;8.646;2024-01-30T11:33:12;13.40;;;13.30;;
20844;SDS011;10583;49.084;8.646;2024-01-30T11:35:40;12.73;;;12.63;;
20844;SDS011;10583;49.084;8.646;2024-01-30T11:38:09;13.00;;;12.90;;
20844;SDS011;10583;49.084;8.646;2024-01-30T11:40:37;12.80;;;12.70;;
20844;SDS011;10583;49.084;8.646;2024-01-30T11:43:05;12.83;;;12.83;;
20844;SDS011;10583;49.084;8.646;2024-01-30T11:45:34;11.93;;;11.83;;
20844;SDS011;10583;49.084;8.646;2024-01-30T11:48:02;11.47;;;11.40;;
20844;SDS011;10583;49.084;8.646;2024-01-30T11:50:29;10.73;;;10.73;;
20844;SDS011;10583;49.084;8.646;2024-01-30T11:52:56;11.70;;;11.60;;
20844;SDS011;10583;49.084;8.646;2024-01-30T11:55:23;9.90;;;9.90;;
20844;SDS011;10583;49.084;8.646;2024-01-30T11:57:50;9.53;;;9.50;;
20844;SDS011;10583;49.084;8.646;2024-01-30T12:00:17;10.23;;;10.23;;
20844;SDS011;10583;49.084;8.646;2024-01-30T12:02:50;9.17;;;9.17;;
20844;SDS011;10583;49.084;8.646;2024-01-30T12:05:20;9.63;;;9.63;;
20844;SDS011;10583;49.084;8.646;2024-01-30T12:07:48;9.60;;;9.60;;
20844;SDS011;10583;49.084;8.646;2024-01-30T12:10:14;9.90;;;9.80;;
20844;SDS011;10583;49.084;8.646;2024-01-30T12:12:43;9.90;;;9.90;;
20844;SDS011;10583;49.084;8.646;2024-01-30T12:15:12;9.83;;;9.83;;
20844;SDS011;10583;49.084;8.646;2024-01-30T12:17:39;10.07;;;10.07;;
20844;SDS011;10583;49.084;8.646;2024-01-30T12:20:08;9.80;;;9.80;;
20844;SDS011;10583;49.084;8.646;2024-01-30T12:22:36;9.97;;;9.97;;
20844;SDS011;10583;49.084;8.646;2024-01-30T12:25:04;9.93;;;9.93;;
20844;SDS011;10583;49.084;8.646;2024-01-30T12:27:31;10.23;;;10.23;;
20844;SDS011;10583;49.084;8.646;2024-01-30T12:29:58;9.00;;;9.00;;
20844;SDS011;10583;49.084;8.646;2024-01-30T12:32:25;9.13;;;9.13;;
20844;SDS011;10583;49.084;8.646;2024-01-30T12:34:54;9.00;;;9.00;;
20844;SDS011;10583;49.084;8.646;2024-01-30T12:37:23;9.23;;;9.23;;
20844;SDS011;10583;49.084;8.646;2024-01-30T12:39:51;10.80;;;10.70;;
20844;SDS011;10583;49.084;8.646;2024-01-30T12:42:19;10.03;;;10.03;;
20844;SDS011;10583;49.084;8.646;2024-01-30T12:44:47;10.23;;;10.20;;
20844;SDS011;10583;49.084;8.646;2024-01-30T12:47:14;8.67;;;8.67;;
20844;SDS011;10583;49.084;8.646;2024-01-30T12:49:41;8.60;;;8.60;;
20844;SDS011;10583;49.084;8.646;2024-01-30T12:52:09;8.27;;;8.27;;
20844;SDS011;10583;49.084;8.646;2024-01-30T12:54:37;7.40;;;7.40;;
20844;SDS011;10583;49.084;8.646;2024-01-30T12:57:04;7.60;;;7.60;;
20844;SDS011;10583;49.084;8.646;2024-01-30T12:59:31;7.67;;;7.67;;
20844;SDS011;10583;49.084;8.646;2024-01-30T13:04:26;8.57;;;8.57;;
20844;SDS011;10583;49.084;8.646;2024-01-30T13:06:53;7.77;;;7.77;;
20844;SDS011;10583;49.084;8.646;2024-01-30T13:09:20;8.03;;;8.03;;
20844;SDS011;10583;49.084;8.646;2024-01-30T13:11:48;8.90;;;8.90;;
20844;SDS011;10583;49.084;8.646;2024-01-30T13:14:16;7.77;;;7.77;;
20844;SDS011;10583;49.084;8.646;2024-01-30T13:16:42;7.17;;;7.17;;
20844;SDS011;10583;49.084;8.646;2024-01-30T13:19:09;7.03;;;7.03;;
20844;SDS011;10583;49.084;8.646;2024-01-30T13:21:36;7.00;;;7.00;;
20844;SDS011;10583;49.084;8.646;2024-01-30T13:24:03;7.70;;;7.70;;
20844;SDS011;10583;49.084;8.646;2024-01-30T13:26:31;8.40;;;8.40;;
20844;SDS011;10583;49.084;8.646;2024-01-30T13:28:59;8.63;;;8.63;;
20844;SDS011;10583;49.084;8.646;2024-01-30T13:31:26;6.97;;;6.97;;
20844;SDS011;10583;49.084;8.646;2024-01-30T13:33:53;7.10;;;7.10;;
20844;SDS011;10583;49.084;8.646;2024-01-30T13:36:19;6.50;;;6.50;;
20844;SDS011;10583;49.084;8.646;2024-01-30T13:38:47;7.53;;;7.53;;
20844;SDS011;10583;49.084;8.646;2024-01-30T13:41:14;7.33;;;7.33;;
20844;SDS011;10583;49.084;8.646;2024-01-30T13:43:41;7.40;;;7.40;;
20844;SDS011;10583;49.084;8.646;2024-01-30T13:46:10;7.13;;;7.13;;
20844;SDS011;10583;49.084;8.646;2024-01-30T13:48:37;7.23;;;7.23;;
20844;SDS011;10583;49.084;8.646;2024-01-30T13:51:04;7.63;;;7.63;;
20844;SDS011;10583;49.084;8.646;2024-01-30T13:53:30;8.47;;;8.47;;
20844;SDS011;10583;49.084;8.646;2024-01-30T13:55:57;8.30;;;8.30;;
20844;SDS011;10583;49.084;8.646;2024-01-30T13:58:24;7.60;;;7.60;;
20844;SDS011;10583;49.084;8.646;2024-01-30T14:00:51;6.87;;;6.87;;
20844;SDS011;10583;49.084;8.646;2024-01-30T14:03:19;7.77;;;7.77;;
20844;SDS011;10583;49.084;8.646;2024-01-30T14:05:46;6.90;;;6.90;;
20844;SDS011;10583;49.084;8.646;2024-01-30T14:08:13;6.57;;;6.57;;
20844;SDS011;10583;49.084;8.646;2024-01-30T14:10:40;6.70;;;6.70;;
20844;SDS011;10583;49.084;8.646;2024-01-30T14:13:06;7.17;;;7.17;;
20844;SDS011;10583;49.084;8.646;2024-01-30T14:15:33;7.40;;;7.40;;
20844;SDS011;10583;49.084;8.646;2024-01-30T14:18:00;8.00;;;8.00;;
20844;SDS011;10583;49.084;8.646;2024-01-30T14:20:28;7.43;;;7.43;;
20844;SDS011;10583;49.084;8.646;2024-01-30T14:22:54;7.73;;;7.73;;
20844;SDS011;10583;49.084;8.646;2024-01-30T14:25:21;7.43;;;7.43;;
20844;SDS011;10583;49.084;8.646;2024-01-30T14:27:48;7.83;;;7.83;;
20844;SDS011;10583;49.084;8.646;2024-01-30T14:30:14;7.57;;;7.57;;
20844;SDS011;10583;49.084;8.646;2024-01-30T14:32:41;7.40;;;7.40;;
20844;SDS011;10583;49.084;8.646;2024-01-30T14:35:09;7.70;;;7.70;;
20844;SDS011;10583;49.084;8.646;2024-01-30T14:37:38;7.57;;;7.57;;